Time;durP1;ratioP1;P1;durP2;ratioP2;P2;SDS_P1;SDS_P2;PMS_P1;PMS_P2;Temp;Humidity;BMP_temperature;BMP_pressure;BME280_temperature;BME280_humidity;BME280_pressure;Samples;Min_cycle;Max_cycle;Signal;HPM_P1;HPM_P2
2022/05/19 00:01:50;;;;;;;6.33;3.70;;;21.60;64.70;;;;;;5021564;28;20574;-72
2022/05/19 00:04:19;;;;;;;6.50;3.20;;;21.50;64.70;;;;;;5021325;28;20470;-72
2022/05/19 00:06:47;;;;;;;6.20;3.90;;;21.50;64.80;;;;;;5018856;28;20524;-72
2022/05/19 00:09:16;;;;;;;6.70;4.10;;;21.40;64.80;;;;;;5019222;28;21386;-72
2022/05/19 00:11:44;;;;;;;7.10;3.80;;;21.30;64.90;;;;;;5022493;28;20804;-72
2022/05/19 00:14:13;;;;;;;6.93;3.93;;;21.20;65.00;;;;;;5019814;28;20568;-72
2022/05/19 00:16:42;;;;;;;7.50;4.10;;;21.10;65.20;;;;;;5013977;28;20555;-72
2022/05/19 00:19:10;;;;;;;6.40;3.53;;;21.00;65.20;;;;;;5013377;28;20464;-72
2022/05/19 00:21:40;;;;;;;6.57;4.17;;;20.90;65.60;;;;;;5016874;28;20472;-72
2022/05/19 00:24:09;;;;;;;8.57;4.20;;;20.80;65.70;;;;;;5022389;28;20449;-72
2022/05/19 00:26:37;;;;;;;7.03;4.00;;;20.80;65.80;;;;;;5019172;28;21000;-72
2022/05/19 00:29:05;;;;;;;7.23;4.00;;;20.70;65.90;;;;;;5015434;28;20494;-72
2022/05/19 00:31:33;;;;;;;6.60;3.80;;;20.70;66.00;;;;;;5013887;28;21022;-72
2022/05/19 00:34:03;;;;;;;7.20;3.90;;;20.60;66.00;;;;;;5017199;28;20501;-73
2022/05/19 00:36:33;;;;;;;9.50;4.00;;;20.60;66.10;;;;;;5018251;28;20482;-72
2022/05/19 00:39:05;;;;;;;7.20;3.83;;;20.50;66.20;;;;;;5017797;28;20458;-72
2022/05/19 00:41:33;;;;;;;6.83;3.60;;;20.50;66.20;;;;;;5024287;28;20868;-72
2022/05/19 00:44:04;;;;;;;6.20;3.83;;;20.50;66.20;;;;;;5022863;28;20458;-72
2022/05/19 00:46:45;;;;;;;6.07;3.63;;;20.50;66.20;;;;;;5020344;28;21354;-73
2022/05/19 00:49:18;;;;;;;12.40;3.77;;;20.50;66.20;;;;;;5018588;28;20505;-72
2022/05/19 00:51:49;;;;;;;7.30;4.20;;;20.50;66.20;;;;;;5020201;28;20976;-72
2022/05/19 00:54:22;;;;;;;6.90;4.37;;;20.40;66.20;;;;;;5018398;28;21020;-73
2022/05/19 00:56:54;;;;;;;6.50;3.87;;;20.40;66.20;;;;;;5019928;28;20477;-72
2022/05/19 00:59:28;;;;;;;5.90;4.00;;;20.30;66.40;;;;;;5017411;28;20486;-72
2022/05/19 01:01:57;;;;;;;6.40;3.67;;;20.30;66.40;;;;;;5017311;28;20477;-72
2022/05/19 01:04:30;;;;;;;7.07;4.00;;;20.30;66.30;;;;;;5016927;28;20457;-72
2022/05/19 01:07:02;;;;;;;6.80;4.07;;;20.30;66.30;;;;;;5018426;28;20951;-72
2022/05/19 01:09:35;;;;;;;6.90;3.57;;;20.20;66.30;;;;;;5015431;28;20559;-71
2022/05/19 01:12:03;;;;;;;7.03;3.93;;;20.20;66.30;;;;;;5012229;28;20799;-72
2022/05/19 01:14:32;;;;;;;7.40;4.10;;;20.20;66.50;;;;;;5030824;28;20518;-71
2022/05/19 01:17:00;;;;;;;7.77;3.57;;;20.20;66.50;;;;;;5018287;28;21215;-71
2022/05/19 01:19:35;;;;;;;5.87;3.70;;;20.10;66.40;;;;;;5015249;28;20441;-71
2022/05/19 01:22:09;;;;;;;6.33;3.37;;;20.10;66.40;;;;;;5016217;28;20461;-71
2022/05/19 01:24:44;;;;;;;6.83;2.83;;;20.10;66.40;;;;;;5018129;28;20496;-71
2022/05/19 01:27:14;;;;;;;8.17;4.00;;;20.10;66.30;;;;;;5019288;28;21206;-73
2022/05/19 01:29:42;;;;;;;5.00;3.00;;;20.10;66.20;;;;;;5013558;28;20552;-74
2022/05/19 01:32:23;;;;;;;5.43;2.80;;;20.10;65.90;;;;;;5018346;28;20472;-74
2022/05/19 01:34:51;;;;;;;5.27;2.93;;;20.10;65.90;;;;;;5011758;28;20497;-74
2022/05/19 01:37:20;;;;;;;6.07;2.80;;;20.10;65.80;;;;;;5031505;28;20629;-72
2022/05/19 01:40:28;;;;;;;6.37;4.03;;;20.20;65.70;;;;;;5015642;28;20561;-75
2022/05/19 01:43:05;;;;;;;8.47;3.97;;;20.20;65.40;;;;;;5017060;28;20491;-73
2022/05/19 01:45:50;;;;;;;8.23;4.17;;;20.10;65.40;;;;;;5014702;28;20563;-73
2022/05/19 01:48:25;;;;;;;6.97;3.87;;;20.00;65.40;;;;;;5016973;28;20912;-73
2022/05/19 01:51:11;;;;;;;7.50;4.37;;;20.00;65.50;;;;;;5019556;28;20538;-75
2022/05/19 01:53:47;;;;;;;11.00;4.33;;;19.90;65.50;;;;;;5016251;28;20967;-73
2022/05/19 01:56:20;;;;;;;7.00;4.53;;;19.80;65.70;;;;;;5022477;28;20494;-76
2022/05/19 01:58:56;;;;;;;8.23;4.37;;;19.70;65.80;;;;;;5021124;28;20468;-75
2022/05/19 02:01:28;;;;;;;7.50;4.40;;;19.70;65.90;;;;;;5017098;28;20978;-74
2022/05/19 02:04:01;;;;;;;9.00;5.20;;;19.60;66.20;;;;;;5017659;28;20517;-74
2022/05/19 02:06:35;;;;;;;8.37;4.70;;;19.60;66.20;;;;;;5016678;28;20473;-73
2022/05/19 02:09:06;;;;;;;7.13;3.80;;;19.50;66.50;;;;;;5015193;28;20569;-72
2022/05/19 02:11:39;;;;;;;6.17;3.70;;;19.40;66.60;;;;;;5015296;28;20978;-72
2022/05/19 02:14:13;;;;;;;8.37;4.77;;;19.40;66.70;;;;;;5017041;28;20457;-75
2022/05/19 02:16:42;;;;;;;7.87;4.30;;;19.40;66.80;;;;;;5017214;28;20490;-71
2022/05/19 02:19:14;;;;;;;7.60;4.50;;;19.30;66.90;;;;;;5015541;28;20466;-72
2022/05/19 02:21:42;;;;;;;9.83;3.90;;;19.30;67.00;;;;;;5010934;28;20467;-74
2022/05/19 02:24:13;;;;;;;7.47;4.40;;;19.30;67.10;;;;;;5014202;28;20448;-73
2022/05/19 02:26:41;;;;;;;6.03;4.20;;;19.20;67.20;;;;;;5018746;28;21386;-74
2022/05/19 02:29:14;;;;;;;6.53;4.43;;;19.20;67.30;;;;;;5018021;28;20554;-73
2022/05/19 02:31:45;;;;;;;8.70;4.23;;;19.10;67.30;;;;;;5016963;28;20475;-73
2022/05/19 02:34:13;;;;;;;10.37;3.67;;;19.10;67.40;;;;;;5013532;28;20495;-74
2022/05/19 02:36:42;;;;;;;6.27;3.70;;;19.00;67.50;;;;;;5012138;28;20476;-75
2022/05/19 02:39:16;;;;;;;7.37;4.20;;;19.00;67.60;;;;;;5013392;28;20497;-73
2022/05/19 02:41:44;;;;;;;7.47;4.47;;;18.90;67.70;;;;;;5019330;28;20466;-73
2022/05/19 02:44:13;;;;;;;8.27;3.90;;;18.90;67.70;;;;;;5018042;28;20474;-73
2022/05/19 02:46:41;;;;;;;15.20;4.30;;;18.80;67.80;;;;;;5014724;28;20475;-73
2022/05/19 02:49:09;;;;;;;7.20;4.40;;;18.80;67.90;;;;;;5020424;28;20481;-74
2022/05/19 02:51:37;;;;;;;8.60;4.87;;;18.80;68.00;;;;;;5014196;28;20453;-73
2022/05/19 02:54:05;;;;;;;7.67;4.20;;;18.70;68.10;;;;;;5015223;28;20583;-73
2022/05/19 02:56:33;;;;;;;6.93;4.30;;;18.70;68.10;;;;;;5017800;28;21014;-73
2022/05/19 02:59:01;;;;;;;7.20;3.80;;;18.60;68.20;;;;;;5022632;28;20813;-71
2022/05/19 03:01:30;;;;;;;8.30;4.33;;;18.60;68.30;;;;;;5019991;28;20491;-73
2022/05/19 03:04:05;;;;;;;7.67;4.80;;;18.60;68.40;;;;;;5014429;28;20473;-73
2022/05/19 03:06:33;;;;;;;7.20;3.87;;;18.60;68.40;;;;;;5020172;28;20496;-72
2022/05/19 03:09:01;;;;;;;7.63;4.00;;;18.50;68.40;;;;;;5017164;28;20488;-73
2022/05/19 03:11:29;;;;;;;7.30;4.33;;;18.50;68.50;;;;;;5017929;28;20449;-74
2022/05/19 03:13:59;;;;;;;8.20;4.33;;;18.50;68.50;;;;;;5016460;28;20456;-73
2022/05/19 03:16:27;;;;;;;7.73;4.67;;;18.50;68.60;;;;;;5021703;28;20492;-73
2022/05/19 03:18:56;;;;;;;8.77;5.20;;;18.40;68.70;;;;;;5022568;28;20502;-73
2022/05/19 03:21:24;;;;;;;8.43;4.20;;;18.50;68.80;;;;;;5022351;28;20458;-74
2022/05/19 03:23:53;;;;;;;7.40;4.33;;;18.50;68.80;;;;;;5023329;28;20562;-73
2022/05/19 03:26:21;;;;;;;8.60;4.27;;;18.50;68.80;;;;;;5020401;28;20489;-72
2022/05/19 03:28:51;;;;;;;9.80;4.53;;;18.50;68.80;;;;;;5021561;28;20534;-73
2022/05/19 03:31:19;;;;;;;7.50;4.10;;;18.50;68.80;;;;;;5016876;28;21013;-73
2022/05/19 03:33:47;;;;;;;8.53;4.50;;;18.60;68.70;;;;;;5020766;28;21027;-72
2022/05/19 03:36:17;;;;;;;6.83;4.30;;;18.60;68.70;;;;;;5021043;28;20835;-72
2022/05/19 03:38:45;;;;;;;9.90;4.33;;;18.50;68.70;;;;;;5017404;28;20465;-73
2022/05/19 03:41:13;;;;;;;6.00;3.70;;;18.50;68.60;;;;;;5019527;28;20449;-73
2022/05/19 03:43:41;;;;;;;6.33;3.70;;;18.50;68.60;;;;;;5018954;28;20452;-73
2022/05/19 03:46:09;;;;;;;6.63;4.03;;;18.50;68.70;;;;;;5020777;28;20499;-73
2022/05/19 03:48:38;;;;;;;6.57;3.80;;;18.50;68.80;;;;;;5021173;28;20456;-73
2022/05/19 03:51:11;;;;;;;6.23;3.87;;;18.50;68.70;;;;;;5019813;28;20505;-73
2022/05/19 03:53:40;;;;;;;11.73;4.70;;;18.50;68.70;;;;;;5016823;28;20818;-74
2022/05/19 03:56:08;;;;;;;7.13;4.90;;;18.50;68.70;;;;;;5021262;28;20479;-73
2022/05/19 03:58:38;;;;;;;8.23;4.10;;;18.50;68.70;;;;;;5022367;28;20465;-73
2022/05/19 04:01:06;;;;;;;7.50;4.20;;;18.50;68.70;;;;;;5019352;28;20508;-74
2022/05/19 04:03:34;;;;;;;10.97;5.17;;;18.50;68.70;;;;;;5025132;28;20463;-73
2022/05/19 04:06:02;;;;;;;7.47;4.53;;;18.40;68.60;;;;;;5020138;28;20495;-71
2022/05/19 04:08:31;;;;;;;6.77;4.03;;;18.40;68.70;;;;;;5019969;28;20531;-74
2022/05/19 04:11:00;;;;;;;7.30;4.37;;;18.40;68.60;;;;;;5017265;28;20494;-73
2022/05/19 04:13:28;;;;;;;7.20;4.23;;;18.40;68.60;;;;;;5018000;28;20463;-73
2022/05/19 04:15:56;;;;;;;12.67;4.17;;;18.40;68.70;;;;;;5021200;28;20500;-70
2022/05/19 04:18:24;;;;;;;7.03;4.40;;;18.30;68.70;;;;;;5023349;28;20459;-71
2022/05/19 04:20:53;;;;;;;6.23;4.10;;;18.30;68.70;;;;;;5022060;28;20479;-74
2022/05/19 04:23:21;;;;;;;8.30;4.90;;;18.30;68.70;;;;;;5022512;28;20461;-73
2022/05/19 04:25:49;;;;;;;8.43;4.57;;;18.20;68.80;;;;;;5019813;28;20495;-74
2022/05/19 04:28:18;;;;;;;7.40;4.00;;;18.20;68.80;;;;;;5021057;28;20459;-74
2022/05/19 04:30:48;;;;;;;7.50;4.53;;;18.10;68.90;;;;;;5021604;28;20488;-73
2022/05/19 04:33:16;;;;;;;8.23;4.77;;;18.10;69.10;;;;;;5021779;28;20812;-73
2022/05/19 04:35:44;;;;;;;5.83;3.60;;;18.10;69.30;;;;;;5017713;28;20492;-73
2022/05/19 04:38:17;;;;;;;7.27;4.40;;;18.00;69.20;;;;;;5015182;28;20465;-73
2022/05/19 04:40:48;;;;;;;9.63;5.37;;;18.00;69.30;;;;;;5020100;28;20468;-73
2022/05/19 04:43:22;;;;;;;7.47;4.30;;;18.00;69.50;;;;;;5018251;28;20468;-73
2022/05/19 04:45:51;;;;;;;8.27;4.40;;;18.00;69.60;;;;;;5017193;28;20481;-73
2022/05/19 04:48:19;;;;;;;7.10;4.20;;;18.00;69.70;;;;;;5019926;28;20467;-73
2022/05/19 04:50:51;;;;;;;9.43;4.37;;;18.10;69.90;;;;;;5017772;28;20480;-73
2022/05/19 04:53:19;;;;;;;7.53;4.40;;;18.10;70.00;;;;;;5013778;28;20465;-73
2022/05/19 04:55:48;;;;;;;5.43;3.57;;;18.20;70.00;;;;;;5021083;28;20480;-73
2022/05/19 04:58:18;;;;;;;6.67;4.07;;;18.30;70.10;;;;;;5018512;28;20503;-73
2022/05/19 05:00:48;;;;;;;6.80;4.10;;;18.40;70.00;;;;;;5018714;28;20495;-73
2022/05/19 05:03:16;;;;;;;8.27;3.70;;;18.60;69.90;;;;;;5019251;28;20472;-73
2022/05/19 05:05:44;;;;;;;6.33;3.80;;;18.70;69.60;;;;;;5023306;28;20483;-73
2022/05/19 05:08:12;;;;;;;10.30;3.70;;;18.80;69.40;;;;;;5020050;28;20472;-73
2022/05/19 05:10:41;;;;;;;10.60;3.87;;;19.00;69.20;;;;;;5018223;28;20478;-73
2022/05/19 05:13:11;;;;;;;9.37;4.40;;;19.10;69.20;;;;;;5019753;28;20465;-70
2022/05/19 05:15:42;;;;;;;9.80;3.63;;;19.20;69.20;;;;;;5021473;28;20475;-72
2022/05/19 05:18:11;;;;;;;7.07;4.00;;;19.40;69.10;;;;;;5015847;28;20531;-71
2022/05/19 05:20:42;;;;;;;6.27;3.80;;;19.60;68.90;;;;;;5017381;28;20457;-72
2022/05/19 05:23:11;;;;;;;6.93;4.13;;;19.80;68.70;;;;;;5012444;28;20468;-71
2022/05/19 05:25:39;;;;;;;7.53;3.40;;;20.10;68.10;;;;;;5013258;28;20560;-72
2022/05/19 05:28:08;;;;;;;6.47;3.83;;;20.30;67.40;;;;;;5013784;28;20471;-72
2022/05/19 05:30:36;;;;;;;8.20;4.27;;;20.60;66.90;;;;;;5015048;28;20495;-71
2022/05/19 05:33:10;;;;;;;8.03;3.87;;;20.90;66.40;;;;;;5021039;28;20944;-71
2022/05/19 05:35:40;;;;;;;7.60;3.60;;;21.30;66.30;;;;;;5022670;28;20632;-72
2022/05/19 05:38:08;;;;;;;7.70;3.47;;;21.90;65.50;;;;;;5023661;28;20455;-73
2022/05/19 05:40:44;;;;;;;6.43;3.40;;;22.70;65.00;;;;;;5022226;28;20464;-72
2022/05/19 05:43:16;;;;;;;5.57;3.30;;;23.60;63.70;;;;;;5021364;28;20461;-69
2022/05/19 05:45:45;;;;;;;7.30;3.90;;;24.40;62.30;;;;;;5016480;28;20486;-71
2022/05/19 05:48:15;;;;;;;8.23;4.67;;;24.90;60.70;;;;;;5022098;28;21008;-70
2022/05/19 05:50:43;;;;;;;17.93;4.13;;;25.00;59.20;;;;;;5019472;28;20554;-71
2022/05/19 05:53:11;;;;;;;12.13;3.90;;;24.90;59.20;;;;;;5018902;28;20455;-72
2022/05/19 05:55:40;;;;;;;6.90;3.77;;;24.80;59.40;;;;;;5018407;28;20481;-73
2022/05/19 05:58:09;;;;;;;8.47;4.10;;;24.90;59.60;;;;;;5014529;28;21263;-72
2022/05/19 06:00:38;;;;;;;6.50;3.67;;;25.20;59.20;;;;;;5010654;28;20477;-71
2022/05/19 06:03:06;;;;;;;6.33;3.60;;;25.60;58.90;;;;;;5013889;28;20456;-71
2022/05/19 06:05:36;;;;;;;7.60;3.60;;;26.10;58.00;;;;;;5016149;28;20512;-74
2022/05/19 06:08:04;;;;;;;7.30;3.00;;;26.50;57.00;;;;;;5017713;28;20469;-71
2022/05/19 06:10:33;;;;;;;7.83;3.23;;;26.80;56.00;;;;;;5020499;28;20563;-73
2022/05/19 06:13:01;;;;;;;7.30;3.40;;;26.90;55.30;;;;;;5018930;28;20448;-72
2022/05/19 06:15:29;;;;;;;8.07;4.70;;;26.80;55.20;;;;;;5023986;28;20511;-70
2022/05/19 06:17:58;;;;;;;5.90;3.23;;;26.40;54.60;;;;;;5022992;28;20480;-69
2022/05/19 06:20:26;;;;;;;7.87;3.00;;;25.70;54.10;;;;;;5021575;28;20457;-72
2022/05/19 06:22:56;;;;;;;10.20;3.50;;;24.90;54.50;;;;;;5016147;28;20987;-73
2022/05/19 06:25:24;;;;;;;5.83;2.80;;;24.10;55.20;;;;;;5015949;28;20664;-73
2022/05/19 06:27:53;;;;;;;6.70;3.13;;;23.40;56.00;;;;;;5019598;28;20500;-73
2022/05/19 06:30:23;;;;;;;10.97;6.80;;;22.80;56.60;;;;;;5016218;28;20528;-73
2022/05/19 06:32:51;;;;;;;10.90;5.20;;;22.40;57.20;;;;;;5016281;28;20483;-73
2022/05/19 06:35:21;;;;;;;7.60;4.90;;;22.10;57.70;;;;;;5016182;28;20484;-72
2022/05/19 06:37:49;;;;;;;8.87;5.50;;;21.90;58.00;;;;;;5018210;28;20470;-73
2022/05/19 06:40:19;;;;;;;57.53;24.20;;;21.80;58.30;;;;;;5016950;28;20504;-73
2022/05/19 06:42:48;;;;;;;20.27;10.03;;;21.70;58.30;;;;;;5016959;28;21289;-73
2022/05/19 06:45:21;;;;;;;8.40;3.90;;;21.60;58.40;;;;;;5019153;28;20477;-73
2022/05/19 06:47:49;;;;;;;6.73;3.37;;;21.60;58.50;;;;;;5022571;28;20990;-72
2022/05/19 06:50:17;;;;;;;5.50;2.57;;;21.50;58.50;;;;;;5022027;28;20515;-72
2022/05/19 06:52:48;;;;;;;5.97;2.87;;;21.50;58.30;;;;;;5022952;28;20494;-73
2022/05/19 06:55:19;;;;;;;5.50;2.50;;;21.40;58.30;;;;;;5022949;28;20480;-73
2022/05/19 06:57:47;;;;;;;11.73;2.63;;;21.30;58.30;;;;;;5020050;28;20478;-73
2022/05/19 07:00:18;;;;;;;5.40;2.77;;;21.30;58.30;;;;;;5018988;28;20452;-74
2022/05/19 07:02:48;;;;;;;4.67;2.40;;;21.20;58.40;;;;;;5019056;28;20519;-73
2022/05/19 07:05:18;;;;;;;6.17;2.83;;;21.20;58.50;;;;;;5018645;28;21001;-73
2022/05/19 07:07:46;;;;;;;7.43;2.80;;;21.20;58.60;;;;;;5021059;28;20473;-73
2022/05/19 07:10:16;;;;;;;13.77;2.50;;;21.20;58.70;;;;;;5016296;28;20479;-73
2022/05/19 07:12:45;;;;;;;7.97;2.63;;;21.20;58.70;;;;;;5018256;28;20495;-72
2022/05/19 07:15:15;;;;;;;7.00;3.00;;;21.30;58.70;;;;;;5019129;28;20498;-73
2022/05/19 07:17:43;;;;;;;5.73;2.60;;;21.30;58.80;;;;;;5020775;28;20460;-73
2022/05/19 07:22:57;;;;;;;14.00;3.33;;;21.30;58.70;;;;;;5017452;28;20481;-73
2022/05/19 07:25:26;;;;;;;5.90;2.93;;;21.30;58.80;;;;;;5018553;28;20508;-74
2022/05/19 07:27:55;;;;;;;6.90;2.60;;;21.30;58.80;;;;;;5020829;28;20448;-72
2022/05/19 07:30:25;;;;;;;9.10;3.27;;;21.40;58.80;;;;;;5017091;28;20461;-73
2022/05/19 07:32:54;;;;;;;5.20;3.20;;;21.40;58.80;;;;;;5018787;28;20486;-73
2022/05/19 07:35:24;;;;;;;5.03;2.47;;;21.40;58.80;;;;;;5020679;28;20486;-73
2022/05/19 07:37:52;;;;;;;7.23;3.07;;;21.40;58.90;;;;;;5020686;28;20452;-73
2022/05/19 07:40:21;;;;;;;7.83;2.80;;;21.40;59.00;;;;;;5021559;28;20530;-73
2022/05/19 07:42:49;;;;;;;6.17;3.23;;;21.40;59.00;;;;;;5020342;28;20463;-71
2022/05/19 07:45:18;;;;;;;15.10;7.27;;;21.50;59.00;;;;;;5021076;28;20538;-72
2022/05/19 07:47:46;;;;;;;16.20;4.80;;;21.50;59.10;;;;;;5020942;28;20471;-73
2022/05/19 07:50:15;;;;;;;5.87;3.17;;;21.60;59.10;;;;;;5021604;28;20459;-73
2022/05/19 07:52:44;;;;;;;6.83;3.60;;;21.60;59.10;;;;;;5024173;28;20477;-73
2022/05/19 07:55:12;;;;;;;7.73;4.20;;;21.70;59.00;;;;;;5018985;28;20488;-74
2022/05/19 07:57:40;;;;;;;7.07;3.43;;;21.70;59.10;;;;;;5015271;28;20460;-70
2022/05/19 08:00:08;;;;;;;5.77;2.60;;;21.70;59.10;;;;;;5023117;28;20466;-72
2022/05/19 08:02:44;;;;;;;7.33;2.80;;;21.70;59.20;;;;;;5025695;28;20476;-73
2022/05/19 08:05:11;;;;;;;5.90;2.70;;;21.80;59.30;;;;;;5019409;28;20491;-72
2022/05/19 08:07:39;;;;;;;6.27;3.23;;;21.80;59.20;;;;;;5019131;28;20530;-74
2022/05/19 08:10:26;;;;;;;8.07;4.00;;;21.90;59.30;;;;;;5019401;28;20468;-71
2022/05/19 08:15:45;;;;;;;9.40;4.53;;;21.90;59.50;;;;;;5021903;28;20543;-72
2022/05/19 08:18:16;;;;;;;7.20;2.90;;;22.00;59.70;;;;;;5021255;28;20471;-71
2022/05/19 08:20:46;;;;;;;5.20;2.63;;;22.00;59.60;;;;;;5021863;28;20444;-70
2022/05/19 08:23:17;;;;;;;5.90;3.23;;;22.10;59.70;;;;;;5017942;28;20447;-72
2022/05/19 08:25:45;;;;;;;5.30;2.73;;;22.10;59.80;;;;;;5021977;28;20539;-71
2022/05/19 08:28:16;;;;;;;5.87;3.27;;;22.20;59.80;;;;;;5023139;28;20599;-71
2022/05/19 08:30:47;;;;;;;6.33;2.53;;;22.20;59.70;;;;;;5024209;28;20474;-72
2022/05/19 08:33:19;;;;;;;8.40;2.97;;;22.20;59.80;;;;;;5019108;28;20468;-71
2022/05/19 08:35:49;;;;;;;9.20;2.87;;;22.30;59.90;;;;;;5018493;28;21016;-71
2022/05/19 08:38:16;;;;;;;7.73;2.47;;;22.40;59.90;;;;;;5017358;28;20445;-74
2022/05/19 08:40:48;;;;;;;7.13;2.40;;;22.40;59.70;;;;;;5017160;28;20449;-72
2022/05/19 08:43:19;;;;;;;13.83;3.30;;;22.50;59.50;;;;;;5018557;28;20452;-71
2022/05/19 08:45:51;;;;;;;5.23;2.80;;;22.50;59.50;;;;;;5020892;28;20554;-70
2022/05/19 08:48:24;;;;;;;5.60;2.50;;;22.60;59.30;;;;;;5022412;28;20456;-71
2022/05/19 08:50:55;;;;;;;7.07;2.53;;;22.60;59.20;;;;;;5019118;28;20456;-71
2022/05/19 08:53:25;;;;;;;5.20;2.20;;;22.60;59.10;;;;;;5020797;28;20494;-69
2022/05/19 08:55:55;;;;;;;6.63;2.20;;;22.70;59.10;;;;;;5020348;28;20489;-72
2022/05/19 08:58:41;;;;;;;6.43;2.33;;;22.80;59.10;;;;;;5023573;28;20451;-72
2022/05/19 09:01:15;;;;;;;4.70;2.40;;;22.80;59.10;;;;;;5022593;28;20486;-72
2022/05/19 09:03:52;;;;;;;6.07;2.53;;;22.90;59.10;;;;;;5020413;28;20491;-70
2022/05/19 09:06:32;;;;;;;5.43;2.80;;;22.90;59.10;;;;;;5017892;28;21263;-71
2022/05/19 09:09:12;;;;;;;8.00;2.13;;;23.00;59.10;;;;;;5012595;28;20474;-71
2022/05/19 09:11:48;;;;;;;4.30;2.20;;;23.10;59.10;;;;;;5020467;28;20484;-70
2022/05/19 09:14:21;;;;;;;8.43;2.47;;;23.20;59.10;;;;;;5019605;28;20530;-72
2022/05/19 09:16:51;;;;;;;6.77;2.67;;;23.20;59.10;;;;;;5021344;28;20571;-71
2022/05/19 09:19:25;;;;;;;10.73;3.00;;;23.20;59.10;;;;;;5019139;28;20532;-71
2022/05/19 09:22:01;;;;;;;4.60;2.20;;;23.30;58.90;;;;;;5017628;28;20534;-70
2022/05/19 09:24:29;;;;;;;4.93;3.07;;;23.30;58.70;;;;;;5025357;28;20505;-72
2022/05/19 09:27:00;;;;;;;12.53;2.30;;;23.40;58.70;;;;;;5021243;28;20503;-71
2022/05/19 09:29:34;;;;;;;8.83;2.87;;;23.50;58.70;;;;;;5016977;28;20465;-72
2022/05/19 09:32:12;;;;;;;5.30;2.50;;;23.50;58.70;;;;;;5016100;28;20519;-73
2022/05/19 09:34:44;;;;;;;5.07;2.67;;;23.60;58.60;;;;;;5016035;28;20468;-73
2022/05/19 09:37:15;;;;;;;4.53;2.47;;;23.60;58.70;;;;;;5015316;28;20445;-73
2022/05/19 09:39:47;;;;;;;5.33;2.27;;;23.70;58.80;;;;;;5017540;28;20464;-73
2022/05/19 09:42:22;;;;;;;5.10;2.50;;;23.70;58.80;;;;;;5022837;28;20531;-72
2022/05/19 09:44:56;;;;;;;5.60;2.83;;;23.80;58.70;;;;;;5018667;28;20465;-71
2022/05/19 09:47:31;;;;;;;5.83;3.00;;;23.80;58.80;;;;;;5017162;28;20478;-72
2022/05/19 09:50:08;;;;;;;5.40;2.50;;;23.80;58.80;;;;;;5017630;28;20459;-74
2022/05/19 09:52:36;;;;;;;6.40;2.63;;;23.90;58.90;;;;;;5017862;28;20982;-71
2022/05/19 09:55:08;;;;;;;8.83;2.57;;;23.90;58.90;;;;;;5017326;28;20499;-73
2022/05/19 09:57:52;;;;;;;6.30;2.43;;;23.90;58.90;;;;;;5022015;28;20966;-71
2022/05/19 10:00:29;;;;;;;5.10;2.40;;;24.00;59.00;;;;;;5018995;28;20447;-72
2022/05/19 10:03:00;;;;;;;6.40;2.83;;;24.00;59.10;;;;;;5019042;28;20498;-71
2022/05/19 10:05:46;;;;;;;6.03;2.60;;;24.00;59.10;;;;;;5020039;28;20478;-74
2022/05/19 10:08:18;;;;;;;6.70;2.60;;;24.20;59.00;;;;;;5017978;28;20454;-74
2022/05/19 10:10:56;;;;;;;6.17;2.63;;;24.20;59.30;;;;;;5017664;28;20473;-72
2022/05/19 10:13:28;;;;;;;8.30;3.00;;;24.30;58.90;;;;;;5018754;28;20470;-72
2022/05/19 10:16:03;;;;;;;6.03;2.60;;;24.30;59.00;;;;;;5018974;28;21001;-73
2022/05/19 10:19:02;;;;;;;5.83;2.43;;;24.30;59.20;;;;;;5017617;28;20462;-72
2022/05/19 10:21:48;;;;;;;6.07;3.17;;;24.40;59.10;;;;;;5018021;28;20465;-73
2022/05/19 10:24:27;;;;;;;5.60;2.57;;;24.50;59.10;;;;;;5021206;28;20452;-73
2022/05/19 10:32:55;;;;;;;5.47;2.90;;;24.60;59.70;;;;;;5016207;28;20467;-73
2022/05/19 10:35:32;;;;;;;7.53;2.53;;;24.70;59.80;;;;;;5016415;28;20895;-73
2022/05/19 10:38:27;;;;;;;5.80;2.40;;;24.70;59.80;;;;;;5012720;28;20801;-73
2022/05/19 10:41:07;;;;;;;5.80;2.43;;;24.70;59.70;;;;;;5015608;28;20459;-73
2022/05/19 10:43:50;;;;;;;6.80;3.40;;;24.70;59.90;;;;;;5018489;28;20455;-73
2022/05/19 10:46:22;;;;;;;7.13;2.70;;;24.70;59.90;;;;;;5019483;28;20478;-73
2022/05/19 10:49:06;;;;;;;5.60;3.13;;;24.70;59.80;;;;;;5018642;28;20462;-73
2022/05/19 10:51:48;;;;;;;5.70;2.40;;;24.70;59.60;;;;;;5019484;28;20461;-72
2022/05/19 10:54:41;;;;;;;7.60;2.90;;;24.70;59.60;;;;;;5016733;28;20475;-73
2022/05/19 10:57:31;;;;;;;8.63;2.90;;;24.70;59.60;;;;;;5013605;28;20468;-72
2022/05/19 11:00:09;;;;;;;6.00;2.83;;;24.80;59.70;;;;;;5016951;28;21057;-73
2022/05/19 11:03:15;;;;;;;4.70;2.70;;;24.90;59.70;;;;;;5016047;28;20878;-72
2022/05/19 11:05:49;;;;;;;5.07;2.70;;;25.00;59.30;;;;;;5031983;28;20490;-72
2022/05/19 11:08:37;;;;;;;5.10;2.37;;;25.10;59.40;;;;;;5011104;28;21046;-72
2022/05/19 11:11:18;;;;;;;5.77;2.87;;;25.10;59.40;;;;;;5010941;28;20858;-73
2022/05/19 11:14:01;;;;;;;7.77;2.77;;;25.20;59.30;;;;;;5017231;28;20485;-73
2022/05/19 11:16:41;;;;;;;10.23;3.10;;;25.20;59.30;;;;;;5021159;28;20494;-72
2022/05/19 11:19:16;;;;;;;6.83;2.80;;;25.30;59.30;;;;;;5022884;28;20461;-72
2022/05/19 11:21:51;;;;;;;7.50;2.80;;;25.30;59.40;;;;;;5018743;28;20453;-72
2022/05/19 11:24:24;;;;;;;5.67;2.40;;;25.40;59.50;;;;;;5022693;28;20451;-70
2022/05/19 11:27:00;;;;;;;5.90;2.57;;;25.50;59.50;;;;;;5018971;28;21363;-74
2022/05/19 11:29:35;;;;;;;4.97;2.50;;;25.50;59.20;;;;;;5014173;28;20471;-73
2022/05/19 11:32:06;;;;;;;6.30;2.83;;;25.50;59.30;;;;;;5015583;28;20869;-71
2022/05/19 11:34:41;;;;;;;5.60;2.83;;;25.60;59.40;;;;;;5021902;28;20475;-72
2022/05/19 11:37:22;;;;;;;5.70;2.80;;;25.70;59.50;;;;;;5022469;28;20455;-73
2022/05/19 11:40:00;;;;;;;6.77;2.40;;;25.80;59.50;;;;;;5027402;28;20452;-72
2022/05/19 11:42:39;;;;;;;5.33;3.00;;;25.80;59.40;;;;;;5021544;28;21029;-73
2022/05/19 11:45:12;;;;;;;6.20;3.07;;;25.80;59.40;;;;;;5020426;28;20479;-72
2022/05/19 11:56:18;;;;;;;5.63;3.37;;;25.90;59.40;;;;;;5022277;28;20479;-72
2022/05/19 11:58:48;;;;;;;6.20;3.27;;;26.00;59.50;;;;;;5020610;28;20818;-72
2022/05/19 12:01:26;;;;;;;5.70;2.70;;;26.00;59.50;;;;;;5018449;28;20479;-72
2022/05/19 12:04:01;;;;;;;6.70;2.60;;;26.10;59.30;;;;;;5019411;28;20460;-72
2022/05/19 12:06:33;;;;;;;6.33;3.17;;;26.20;59.30;;;;;;5020363;28;20508;-73
2022/05/19 12:09:05;;;;;;;5.23;3.07;;;26.20;59.10;;;;;;5034594;28;21057;-73
2022/05/19 12:11:52;;;;;;;5.67;3.37;;;26.30;59.00;;;;;;5015964;28;20463;-73
2022/05/19 12:14:34;;;;;;;8.80;2.47;;;26.30;58.90;;;;;;5021119;28;20489;-71
2022/05/19 12:17:33;;;;;;;5.60;3.03;;;26.40;59.10;;;;;;5022294;28;20570;-70
2022/05/19 12:20:03;;;;;;;5.30;2.70;;;26.40;59.00;;;;;;5017240;28;20817;-71
2022/05/19 12:22:35;;;;;;;4.77;2.53;;;26.50;59.20;;;;;;5022103;28;20458;-74
2022/05/19 12:25:16;;;;;;;7.67;2.67;;;26.50;59.30;;;;;;5020362;28;20475;-71
2022/05/19 12:27:55;;;;;;;4.77;2.47;;;26.60;59.40;;;;;;5022459;28;20545;-72
2022/05/19 12:33:25;;;;;;;5.50;3.13;;;26.70;59.00;;;;;;5018132;28;20978;-72
2022/05/19 12:35:58;;;;;;;6.10;2.70;;;26.70;58.90;;;;;;5020579;28;20562;-70
2022/05/19 12:38:33;;;;;;;8.77;2.70;;;26.80;58.90;;;;;;5018900;28;20455;-70
2022/05/19 12:41:36;;;;;;;5.70;2.90;;;26.90;58.80;;;;;;5018782;28;20958;-71
2022/05/19 12:44:28;;;;;;;14.57;9.63;;;26.90;58.60;;;;;;5017494;28;20465;-74
2022/05/19 12:47:04;;;;;;;5.30;2.73;;;27.00;58.70;;;;;;5018282;28;20484;-71
2022/05/19 12:50:10;;;;;;;6.70;2.83;;;27.00;58.60;;;;;;5019523;28;20450;-71
2022/05/19 12:56:55;;;;;;;8.43;3.00;;;27.10;58.40;;;;;;5011921;28;20623;-71
2022/05/19 12:59:36;;;;;;;5.73;2.53;;;27.20;58.60;;;;;;5018677;28;20459;-71
2022/05/19 13:02:11;;;;;;;5.70;2.87;;;27.20;58.70;;;;;;5014968;28;21023;-70
2022/05/19 13:09:10;;;;;;;5.20;2.60;;;27.40;58.40;;;;;;5012820;28;20437;-71
2022/05/19 13:11:45;;;;;;;6.83;2.87;;;27.40;58.50;;;;;;5011463;28;20514;-72
2022/05/19 13:14:15;;;;;;;4.83;2.90;;;27.40;58.50;;;;;;5019068;28;20473;-72
2022/05/19 13:16:51;;;;;;;8.30;3.07;;;27.50;58.70;;;;;;5018259;28;20537;-72
2022/05/19 13:19:23;;;;;;;6.30;3.47;;;27.50;58.60;;;;;;5017545;28;20455;-72
2022/05/19 13:21:56;;;;;;;6.00;3.00;;;27.60;58.30;;;;;;5020670;28;21235;-72
2022/05/19 13:24:26;;;;;;;7.60;3.03;;;27.60;58.40;;;;;;5019708;28;20463;-70
2022/05/19 13:32:27;;;;;;;14.03;3.50;;;27.80;58.00;;;;;;5020936;28;20481;-71
2022/05/19 13:35:45;;;;;;;7.20;3.40;;;27.90;58.10;;;;;;5018991;28;20483;-72
2022/05/19 13:38:42;;;;;;;8.47;3.23;;;27.90;58.30;;;;;;5019798;28;20571;-72
2022/05/19 13:41:13;;;;;;;6.17;3.50;;;28.00;58.50;;;;;;5016143;28;20453;-71
2022/05/19 13:43:46;;;;;;;9.70;3.30;;;28.00;58.50;;;;;;5014948;28;20464;-72
2022/05/19 13:46:17;;;;;;;5.83;3.33;;;28.10;58.80;;;;;;5016809;28;20495;-72
2022/05/19 13:48:51;;;;;;;6.70;3.50;;;28.10;59.00;;;;;;5016181;28;20455;-71
2022/05/19 13:51:21;;;;;;;6.73;3.50;;;28.10;58.70;;;;;;5016767;28;20459;-70